sensor_id;sensor_type;location;lat;lon;timestamp;P1;durP1;ratioP1;P2;durP2;ratioP2
59512;SDS011;45330;51.634;5.562;2023-03-23T00:01:15;9.20;;;4.10;;
59512;SDS011;45330;51.634;5.562;2023-03-23T00:03:44;12.10;;;3.72;;
59512;SDS011;45330;51.634;5.562;2023-03-23T00:06:11;11.57;;;3.70;;
59512;SDS011;45330;51.634;5.562;2023-03-23T00:08:42;9.63;;;4.00;;
59512;SDS011;45330;51.634;5.562;2023-03-23T00:11:15;12.40;;;3.50;;
59512;SDS011;45330;51.634;5.562;2023-03-23T00:13:44;11.55;;;4.85;;
59512;SDS011;45330;51.634;5.562;2023-03-23T00:16:11;10.50;;;3.50;;
59512;SDS011;45330;51.634;5.562;2023-03-23T00:18:47;11.63;;;4.00;;
59512;SDS011;45330;51.634;5.562;2023-03-23T00:21:20;10.57;;;3.88;;
59512;SDS011;45330;51.634;5.562;2023-03-23T00:23:50;11.35;;;3.80;;
59512;SDS011;45330;51.634;5.562;2023-03-23T00:26:18;11.52;;;3.78;;
59512;SDS011;45330;51.634;5.562;2023-03-23T00:28:44;12.43;;;4.10;;
59512;SDS011;45330;51.634;5.562;2023-03-23T00:31:11;6.80;;;3.38;;
59512;SDS011;45330;51.634;5.562;2023-03-23T00:33:38;9.35;;;3.70;;
59512;SDS011;45330;51.634;5.562;2023-03-23T00:36:06;9.57;;;3.70;;
59512;SDS011;45330;51.634;5.562;2023-03-23T00:38:36;9.82;;;3.70;;
59512;SDS011;45330;51.634;5.562;2023-03-23T00:41:03;11.90;;;3.83;;
59512;SDS011;45330;51.634;5.562;2023-03-23T00:43:29;9.45;;;3.67;;
59512;SDS011;45330;51.634;5.562;2023-03-23T00:45:56;10.75;;;3.78;;
59512;SDS011;45330;51.634;5.562;2023-03-23T00:48:26;13.30;;;4.13;;
59512;SDS011;45330;51.634;5.562;2023-03-23T00:50:52;11.30;;;3.83;;
59512;SDS011;45330;51.634;5.562;2023-03-23T00:53:18;12.60;;;4.07;;
59512;SDS011;45330;51.634;5.562;2023-03-23T00:55:44;11.13;;;3.85;;
59512;SDS011;45330;51.634;5.562;2023-03-23T00:58:11;10.38;;;3.90;;
59512;SDS011;45330;51.634;5.562;2023-03-23T01:00:37;10.05;;;3.75;;
59512;SDS011;45330;51.634;5.562;2023-03-23T01:03:03;10.75;;;4.70;;
59512;SDS011;45330;51.634;5.562;2023-03-23T01:05:29;10.60;;;3.88;;
59512;SDS011;45330;51.634;5.562;2023-03-23T01:07:58;11.90;;;4.03;;
59512;SDS011;45330;51.634;5.562;2023-03-23T01:10:24;10.23;;;4.28;;
59512;SDS011;45330;51.634;5.562;2023-03-23T01:12:51;15.85;;;4.70;;
59512;SDS011;45330;51.634;5.562;2023-03-23T01:15:18;10.82;;;4.30;;
59512;SDS011;45330;51.634;5.562;2023-03-23T01:17:44;11.82;;;4.30;;
59512;SDS011;45330;51.634;5.562;2023-03-23T01:20:10;13.30;;;4.85;;
59512;SDS011;45330;51.634;5.562;2023-03-23T01:22:38;13.52;;;4.75;;
59512;SDS011;45330;51.634;5.562;2023-03-23T01:25:05;11.57;;;5.05;;
59512;SDS011;45330;51.634;5.562;2023-03-23T01:27:31;11.93;;;4.50;;
59512;SDS011;45330;51.634;5.562;2023-03-23T01:29:56;13.70;;;4.38;;
59512;SDS011;45330;51.634;5.562;2023-03-23T01:32:22;12.55;;;4.70;;
59512;SDS011;45330;51.634;5.562;2023-03-23T01:34:47;14.70;;;4.13;;
59512;SDS011;45330;51.634;5.562;2023-03-23T01:37:13;12.60;;;4.55;;
59512;SDS011;45330;51.634;5.562;2023-03-23T01:39:38;9.05;;;4.10;;
59512;SDS011;45330;51.634;5.562;2023-03-23T01:42:04;10.07;;;4.10;;
59512;SDS011;45330;51.634;5.562;2023-03-23T01:46:55;11.45;;;4.18;;
59512;SDS011;45330;51.634;5.562;2023-03-23T01:49:21;8.68;;;3.83;;
59512;SDS011;45330;51.634;5.562;2023-03-23T01:52:37;12.77;;;4.28;;
59512;SDS011;45330;51.634;5.562;2023-03-23T01:54:46;10.32;;;4.30;;
59512;SDS011;45330;51.634;5.562;2023-03-23T01:57:15;11.32;;;4.28;;
59512;SDS011;45330;51.634;5.562;2023-03-23T01:59:45;13.30;;;4.70;;
59512;SDS011;45330;51.634;5.562;2023-03-23T02:02:15;9.55;;;4.05;;
59512;SDS011;45330;51.634;5.562;2023-03-23T02:04:41;12.90;;;3.92;;
59512;SDS011;45330;51.634;5.562;2023-03-23T02:07:07;9.77;;;4.15;;
59512;SDS011;45330;51.634;5.562;2023-03-23T02:09:33;9.98;;;4.13;;
59512;SDS011;45330;51.634;5.562;2023-03-23T02:11:58;10.68;;;4.45;;
59512;SDS011;45330;51.634;5.562;2023-03-23T02:14:24;10.95;;;4.22;;
59512;SDS011;45330;51.634;5.562;2023-03-23T02:17:12;12.90;;;4.53;;
59512;SDS011;45330;51.634;5.562;2023-03-23T02:36:30;12.82;;;4.28;;
59512;SDS011;45330;51.634;5.562;2023-03-23T02:39:09;12.52;;;4.45;;
59512;SDS011;45330;51.634;5.562;2023-03-23T02:41:39;10.13;;;4.25;;
59512;SDS011;45330;51.634;5.562;2023-03-23T02:44:11;9.70;;;4.07;;
59512;SDS011;45330;51.634;5.562;2023-03-23T02:46:38;10.25;;;4.25;;
59512;SDS011;45330;51.634;5.562;2023-03-23T02:49:05;12.18;;;4.15;;
59512;SDS011;45330;51.634;5.562;2023-03-23T02:51:33;13.07;;;4.18;;
59512;SDS011;45330;51.634;5.562;2023-03-23T02:53:59;9.23;;;3.72;;
59512;SDS011;45330;51.634;5.562;2023-03-23T02:56:26;8.70;;;3.88;;
59512;SDS011;45330;51.634;5.562;2023-03-23T02:58:54;10.32;;;3.90;;
59512;SDS011;45330;51.634;5.562;2023-03-23T03:03:53;11.48;;;3.90;;
59512;SDS011;45330;51.634;5.562;2023-03-23T03:09:20;10.15;;;3.65;;
59512;SDS011;45330;51.634;5.562;2023-03-23T03:11:56;6.95;;;3.22;;
59512;SDS011;45330;51.634;5.562;2023-03-23T03:14:30;7.50;;;3.42;;
59512;SDS011;45330;51.634;5.562;2023-03-23T03:17:02;9.68;;;3.50;;
59512;SDS011;45330;51.634;5.562;2023-03-23T03:19:39;7.53;;;3.40;;
59512;SDS011;45330;51.634;5.562;2023-03-23T03:22:08;7.88;;;3.60;;
59512;SDS011;45330;51.634;5.562;2023-03-23T03:24:34;9.45;;;3.42;;
59512;SDS011;45330;51.634;5.562;2023-03-23T03:27:05;9.85;;;3.78;;
59512;SDS011;45330;51.634;5.562;2023-03-23T03:29:39;9.90;;;3.67;;
59512;SDS011;45330;51.634;5.562;2023-03-23T03:32:11;10.80;;;3.75;;
59512;SDS011;45330;51.634;5.562;2023-03-23T03:34:40;11.40;;;4.20;;
59512;SDS011;45330;51.634;5.562;2023-03-23T03:37:06;8.07;;;3.53;;
59512;SDS011;45330;51.634;5.562;2023-03-23T03:39:34;7.30;;;3.33;;
59512;SDS011;45330;51.634;5.562;2023-03-23T03:42:01;7.40;;;3.80;;
59512;SDS011;45330;51.634;5.562;2023-03-23T03:44:26;10.95;;;3.60;;
59512;SDS011;45330;51.634;5.562;2023-03-23T03:46:52;9.65;;;3.50;;
59512;SDS011;45330;51.634;5.562;2023-03-23T03:49:17;9.30;;;3.97;;
59512;SDS011;45330;51.634;5.562;2023-03-23T03:51:43;10.00;;;3.90;;
59512;SDS011;45330;51.634;5.562;2023-03-23T03:54:09;7.25;;;3.42;;
59512;SDS011;45330;51.634;5.562;2023-03-23T03:56:35;10.88;;;3.72;;
59512;SDS011;45330;51.634;5.562;2023-03-23T03:59:05;10.38;;;3.75;;
59512;SDS011;45330;51.634;5.562;2023-03-23T04:01:33;10.13;;;3.38;;
59512;SDS011;45330;51.634;5.562;2023-03-23T04:03:59;7.05;;;3.40;;
59512;SDS011;45330;51.634;5.562;2023-03-23T04:06:24;10.52;;;3.60;;
59512;SDS011;45330;51.634;5.562;2023-03-23T04:08:52;10.15;;;3.50;;
59512;SDS011;45330;51.634;5.562;2023-03-23T04:11:20;12.55;;;3.40;;
59512;SDS011;45330;51.634;5.562;2023-03-23T04:13:46;10.32;;;3.25;;
59512;SDS011;45330;51.634;5.562;2023-03-23T04:16:11;10.55;;;3.13;;
59512;SDS011;45330;51.634;5.562;2023-03-23T04:18:36;10.45;;;3.90;;
59512;SDS011;45330;51.634;5.562;2023-03-23T04:21:02;14.38;;;3.55;;
59512;SDS011;45330;51.634;5.562;2023-03-23T04:23:29;8.63;;;3.28;;
59512;SDS011;45330;51.634;5.562;2023-03-23T04:25:58;11.10;;;3.28;;
59512;SDS011;45330;51.634;5.562;2023-03-23T04:28:24;7.03;;;2.58;;
59512;SDS011;45330;51.634;5.562;2023-03-23T04:30:50;13.00;;;3.22;;
59512;SDS011;45330;51.634;5.562;2023-03-23T04:33:18;9.50;;;2.83;;
59512;SDS011;45330;51.634;5.562;2023-03-23T04:35:44;10.85;;;3.25;;
59512;SDS011;45330;51.634;5.562;2023-03-23T04:38:14;10.32;;;2.92;;
59512;SDS011;45330;51.634;5.562;2023-03-23T04:40:40;9.85;;;3.00;;
59512;SDS011;45330;51.634;5.562;2023-03-23T04:43:07;9.23;;;2.70;;
59512;SDS011;45330;51.634;5.562;2023-03-23T04:45:33;12.93;;;2.80;;
59512;SDS011;45330;51.634;5.562;2023-03-23T04:48:02;10.00;;;2.30;;
59512;SDS011;45330;51.634;5.562;2023-03-23T04:50:30;12.77;;;2.65;;
59512;SDS011;45330;51.634;5.562;2023-03-23T04:52:58;11.82;;;2.50;;
59512;SDS011;45330;51.634;5.562;2023-03-23T04:55:29;10.25;;;2.53;;
59512;SDS011;45330;51.634;5.562;2023-03-23T04:58:04;12.70;;;2.50;;
59512;SDS011;45330;51.634;5.562;2023-03-23T05:00:31;13.88;;;2.65;;
59512;SDS011;45330;51.634;5.562;2023-03-23T05:02:58;10.40;;;2.33;;
59512;SDS011;45330;51.634;5.562;2023-03-23T05:05:23;11.10;;;2.67;;
59512;SDS011;45330;51.634;5.562;2023-03-23T05:07:50;9.63;;;2.60;;
59512;SDS011;45330;51.634;5.562;2023-03-23T05:10:16;11.20;;;2.40;;
59512;SDS011;45330;51.634;5.562;2023-03-23T05:12:42;10.77;;;2.55;;
59512;SDS011;45330;51.634;5.562;2023-03-23T05:15:09;14.45;;;2.60;;
59512;SDS011;45330;51.634;5.562;2023-03-23T05:17:36;10.43;;;2.58;;
59512;SDS011;45330;51.634;5.562;2023-03-23T05:20:02;9.38;;;2.45;;
59512;SDS011;45330;51.634;5.562;2023-03-23T05:22:36;11.13;;;2.53;;
59512;SDS011;45330;51.634;5.562;2023-03-23T05:25:03;8.38;;;2.33;;
59512;SDS011;45330;51.634;5.562;2023-03-23T05:27:30;10.20;;;2.60;;
59512;SDS011;45330;51.634;5.562;2023-03-23T05:29:58;11.40;;;2.53;;
59512;SDS011;45330;51.634;5.562;2023-03-23T05:32:25;13.65;;;2.90;;
59512;SDS011;45330;51.634;5.562;2023-03-23T05:34:57;12.93;;;2.53;;
59512;SDS011;45330;51.634;5.562;2023-03-23T05:37:24;10.07;;;2.50;;
59512;SDS011;45330;51.634;5.562;2023-03-23T05:39:51;10.68;;;2.17;;
59512;SDS011;45330;51.634;5.562;2023-03-23T05:42:20;11.75;;;2.47;;
59512;SDS011;45330;51.634;5.562;2023-03-23T05:44:47;9.50;;;2.20;;
59512;SDS011;45330;51.634;5.562;2023-03-23T05:47:12;9.63;;;2.13;;
59512;SDS011;45330;51.634;5.562;2023-03-23T05:49:38;8.10;;;2.28;;
59512;SDS011;45330;51.634;5.562;2023-03-23T05:52:03;11.40;;;2.33;;
59512;SDS011;45330;51.634;5.562;2023-03-23T05:54:29;13.10;;;2.50;;
59512;SDS011;45330;51.634;5.562;2023-03-23T05:56:54;11.40;;;2.30;;
59512;SDS011;45330;51.634;5.562;2023-03-23T05:59:20;9.60;;;3.03;;
59512;SDS011;45330;51.634;5.562;2023-03-23T06:01:46;9.65;;;2.42;;
59512;SDS011;45330;51.634;5.562;2023-03-23T06:04:11;12.27;;;2.40;;
59512;SDS011;45330;51.634;5.562;2023-03-23T06:06:38;12.73;;;2.30;;
59512;SDS011;45330;51.634;5.562;2023-03-23T06:09:06;10.30;;;2.35;;
59512;SDS011;45330;51.634;5.562;2023-03-23T06:11:32;13.35;;;2.50;;
59512;SDS011;45330;51.634;5.562;2023-03-23T06:13:57;11.55;;;2.60;;
59512;SDS011;45330;51.634;5.562;2023-03-23T06:16:22;14.45;;;2.88;;
59512;SDS011;45330;51.634;5.562;2023-03-23T06:18:48;12.60;;;2.58;;
59512;SDS011;45330;51.634;5.562;2023-03-23T06:21:14;14.20;;;2.85;;
59512;SDS011;45330;51.634;5.562;2023-03-23T06:23:40;9.07;;;2.60;;
59512;SDS011;45330;51.634;5.562;2023-03-23T06:26:06;11.38;;;2.63;;
59512;SDS011;45330;51.634;5.562;2023-03-23T06:28:39;12.70;;;2.70;;
59512;SDS011;45330;51.634;5.562;2023-03-23T06:31:05;14.85;;;2.65;;
59512;SDS011;45330;51.634;5.562;2023-03-23T06:33:33;11.00;;;2.83;;
59512;SDS011;45330;51.634;5.562;2023-03-23T06:36:01;16.23;;;3.28;;
59512;SDS011;45330;51.634;5.562;2023-03-23T06:38:26;14.45;;;2.85;;
59512;SDS011;45330;51.634;5.562;2023-03-23T06:40:52;11.10;;;2.70;;
59512;SDS011;45330;51.634;5.562;2023-03-23T06:43:18;12.95;;;3.00;;
59512;SDS011;45330;51.634;5.562;2023-03-23T06:45:44;13.68;;;2.50;;
59512;SDS011;45330;51.634;5.562;2023-03-23T06:48:10;11.50;;;2.38;;
59512;SDS011;45330;51.634;5.562;2023-03-23T06:50:35;11.68;;;2.63;;
59512;SDS011;45330;51.634;5.562;2023-03-23T06:53:01;12.60;;;2.20;;
59512;SDS011;45330;51.634;5.562;2023-03-23T06:55:26;11.85;;;2.78;;
59512;SDS011;45330;51.634;5.562;2023-03-23T06:57:51;12.75;;;2.80;;
59512;SDS011;45330;51.634;5.562;2023-03-23T07:00:17;15.13;;;2.88;;
59512;SDS011;45330;51.634;5.562;2023-03-23T07:02:43;15.65;;;3.42;;
59512;SDS011;45330;51.634;5.562;2023-03-23T07:05:09;15.68;;;3.00;;
59512;SDS011;45330;51.634;5.562;2023-03-23T07:07:36;18.98;;;4.30;;
59512;SDS011;45330;51.634;5.562;2023-03-23T07:10:06;11.93;;;2.60;;
59512;SDS011;45330;51.634;5.562;2023-03-23T07:12:34;13.38;;;2.60;;
59512;SDS011;45330;51.634;5.562;2023-03-23T07:15:00;12.48;;;2.65;;
59512;SDS011;45330;51.634;5.562;2023-03-23T07:17:27;13.68;;;2.90;;
59512;SDS011;45330;51.634;5.562;2023-03-23T07:19:53;12.50;;;2.50;;
59512;SDS011;45330;51.634;5.562;2023-03-23T07:22:19;15.60;;;3.25;;
59512;SDS011;45330;51.634;5.562;2023-03-23T07:24:44;14.68;;;3.10;;
59512;SDS011;45330;51.634;5.562;2023-03-23T07:27:10;14.32;;;2.95;;
59512;SDS011;45330;51.634;5.562;2023-03-23T07:29:36;12.20;;;2.97;;
59512;SDS011;45330;51.634;5.562;2023-03-23T07:32:03;12.05;;;2.70;;
59512;SDS011;45330;51.634;5.562;2023-03-23T07:34:30;11.23;;;2.65;;
59512;SDS011;45330;51.634;5.562;2023-03-23T07:36:56;15.60;;;2.80;;
59512;SDS011;45330;51.634;5.562;2023-03-23T07:39:22;11.05;;;2.60;;
59512;SDS011;45330;51.634;5.562;2023-03-23T07:41:49;12.93;;;2.78;;
59512;SDS011;45330;51.634;5.562;2023-03-23T07:44:14;9.35;;;2.88;;
59512;SDS011;45330;51.634;5.562;2023-03-23T07:46:40;5.47;;;1.70;;
59512;SDS011;45330;51.634;5.562;2023-03-23T07:49:07;7.25;;;1.98;;
59512;SDS011;45330;51.634;5.562;2023-03-23T07:51:33;5.40;;;1.50;;
59512;SDS011;45330;51.634;5.562;2023-03-23T07:53:59;6.50;;;1.80;;
59512;SDS011;45330;51.634;5.562;2023-03-23T07:56:24;5.07;;;1.70;;
59512;SDS011;45330;51.634;5.562;2023-03-23T07:58:51;6.13;;;1.75;;
59512;SDS011;45330;51.634;5.562;2023-03-23T08:01:16;5.25;;;1.75;;
59512;SDS011;45330;51.634;5.562;2023-03-23T08:03:42;3.22;;;1.40;;
59512;SDS011;45330;51.634;5.562;2023-03-23T08:06:07;4.57;;;1.48;;
59512;SDS011;45330;51.634;5.562;2023-03-23T08:08:34;7.03;;;1.65;;
59512;SDS011;45330;51.634;5.562;2023-03-23T08:11:00;6.60;;;1.60;;
59512;SDS011;45330;51.634;5.562;2023-03-23T08:13:26;9.27;;;1.90;;
59512;SDS011;45330;51.634;5.562;2023-03-23T08:15:51;5.53;;;1.75;;
59512;SDS011;45330;51.634;5.562;2023-03-23T08:18:17;6.38;;;1.73;;
59512;SDS011;45330;51.634;5.562;2023-03-23T08:20:43;7.80;;;1.80;;
59512;SDS011;45330;51.634;5.562;2023-03-23T08:23:09;4.28;;;1.45;;
59512;SDS011;45330;51.634;5.562;2023-03-23T08:25:35;6.18;;;1.63;;
59512;SDS011;45330;51.634;5.562;2023-03-23T08:28:02;7.13;;;1.60;;
59512;SDS011;45330;51.634;5.562;2023-03-23T08:30:28;4.32;;;1.80;;
59512;SDS011;45330;51.634;5.562;2023-03-23T08:32:55;6.95;;;1.60;;
59512;SDS011;45330;51.634;5.562;2023-03-23T08:35:22;10.00;;;2.25;;
59512;SDS011;45330;51.634;5.562;2023-03-23T08:37:48;4.50;;;1.88;;
59512;SDS011;45330;51.634;5.562;2023-03-23T08:40:19;7.40;;;2.00;;
59512;SDS011;45330;51.634;5.562;2023-03-23T08:42:47;5.82;;;1.83;;
59512;SDS011;45330;51.634;5.562;2023-03-23T08:45:14;7.68;;;2.00;;
59512;SDS011;45330;51.634;5.562;2023-03-23T08:47:43;9.25;;;2.17;;
59512;SDS011;45330;51.634;5.562;2023-03-23T08:50:14;9.27;;;2.00;;
59512;SDS011;45330;51.634;5.562;2023-03-23T08:55:07;6.50;;;1.75;;
59512;SDS011;45330;51.634;5.562;2023-03-23T08:57:33;5.07;;;1.75;;
59512;SDS011;45330;51.634;5.562;2023-03-23T08:59:59;4.97;;;1.65;;
59512;SDS011;45330;51.634;5.562;2023-03-23T09:02:38;4.30;;;1.60;;
59512;SDS011;45330;51.634;5.562;2023-03-23T09:05:03;7.10;;;1.67;;
59512;SDS011;45330;51.634;5.562;2023-03-23T09:07:29;6.22;;;1.60;;
59512;SDS011;45330;51.634;5.562;2023-03-23T09:09:54;3.63;;;1.27;;
59512;SDS011;45330;51.634;5.562;2023-03-23T09:12:20;10.23;;;1.63;;
59512;SDS011;45330;51.634;5.562;2023-03-23T09:14:45;6.82;;;2.38;;
59512;SDS011;45330;51.634;5.562;2023-03-23T09:17:11;6.55;;;1.90;;
59512;SDS011;45330;51.634;5.562;2023-03-23T09:19:36;16.13;;;3.40;;
59512;SDS011;45330;51.634;5.562;2023-03-23T09:22:02;6.57;;;2.08;;
59512;SDS011;45330;51.634;5.562;2023-03-23T09:24:28;6.75;;;1.67;;
59512;SDS011;45330;51.634;5.562;2023-03-23T09:26:54;7.32;;;1.85;;
59512;SDS011;45330;51.634;5.562;2023-03-23T09:29:19;7.93;;;1.73;;
59512;SDS011;45330;51.634;5.562;2023-03-23T09:31:46;6.20;;;1.70;;
59512;SDS011;45330;51.634;5.562;2023-03-23T09:34:13;8.57;;;2.08;;
59512;SDS011;45330;51.634;5.562;2023-03-23T09:36:40;10.10;;;2.10;;
59512;SDS011;45330;51.634;5.562;2023-03-23T09:39:09;8.98;;;2.25;;
59512;SDS011;45330;51.634;5.562;2023-03-23T09:47:08;10.82;;;2.30;;
59512;SDS011;45330;51.634;5.562;2023-03-23T09:52:15;8.50;;;1.92;;
59512;SDS011;45330;51.634;5.562;2023-03-23T09:54:49;12.90;;;2.90;;
59512;SDS011;45330;51.634;5.562;2023-03-23T09:57:33;10.18;;;2.17;;
59512;SDS011;45330;51.634;5.562;2023-03-23T10:00:24;9.52;;;2.05;;
59512;SDS011;45330;51.634;5.562;2023-03-23T10:03:14;8.85;;;2.05;;
59512;SDS011;45330;51.634;5.562;2023-03-23T10:11:04;9.27;;;2.38;;
59512;SDS011;45330;51.634;5.562;2023-03-23T10:16:03;7.10;;;2.03;;
59512;SDS011;45330;51.634;5.562;2023-03-23T10:21:20;6.63;;;1.80;;
59512;SDS011;45330;51.634;5.562;2023-03-23T10:24:00;11.32;;;2.30;;
59512;SDS011;45330;51.634;5.562;2023-03-23T10:26:40;10.88;;;2.10;;
59512;SDS011;45330;51.634;5.562;2023-03-23T10:29:08;9.02;;;2.50;;
59512;SDS011;45330;51.634;5.562;2023-03-23T10:31:41;10.45;;;2.20;;
59512;SDS011;45330;51.634;5.562;2023-03-23T10:34:12;11.70;;;2.63;;
59512;SDS011;45330;51.634;5.562;2023-03-23T10:36:55;12.57;;;2.72;;
59512;SDS011;45330;51.634;5.562;2023-03-23T10:39:21;10.30;;;2.42;;
59512;SDS011;45330;51.634;5.562;2023-03-23T10:41:49;10.45;;;2.33;;
59512;SDS011;45330;51.634;5.562;2023-03-23T10:46:45;12.40;;;2.85;;
59512;SDS011;45330;51.634;5.562;2023-03-23T10:49:16;12.55;;;2.50;;
59512;SDS011;45330;51.634;5.562;2023-03-23T10:51:48;6.82;;;2.70;;
59512;SDS011;45330;51.634;5.562;2023-03-23T10:54:31;11.63;;;2.33;;
59512;SDS011;45330;51.634;5.562;2023-03-23T10:57:01;8.57;;;2.47;;
59512;SDS011;45330;51.634;5.562;2023-03-23T10:59:47;11.80;;;2.50;;
59512;SDS011;45330;51.634;5.562;2023-03-23T11:02:21;7.75;;;2.33;;
59512;SDS011;45330;51.634;5.562;2023-03-23T11:04:56;9.05;;;2.95;;
59512;SDS011;45330;51.634;5.562;2023-03-23T11:07:27;5.88;;;2.35;;
59512;SDS011;45330;51.634;5.562;2023-03-23T11:10:05;9.55;;;2.53;;
59512;SDS011;45330;51.634;5.562;2023-03-23T11:12:45;16.70;;;3.35;;
59512;SDS011;45330;51.634;5.562;2023-03-23T11:15:21;11.80;;;2.58;;
59512;SDS011;45330;51.634;5.562;2023-03-23T11:17:58;9.75;;;2.30;;
59512;SDS011;45330;51.634;5.562;2023-03-23T11:20:25;11.18;;;2.50;;
59512;SDS011;45330;51.634;5.562;2023-03-23T11:22:53;8.88;;;2.58;;
59512;SDS011;45330;51.634;5.562;2023-03-23T11:25:20;11.88;;;2.60;;
59512;SDS011;45330;51.634;5.562;2023-03-23T11:27:46;10.18;;;2.40;;
59512;SDS011;45330;51.634;5.562;2023-03-23T11:30:19;14.55;;;2.58;;
59512;SDS011;45330;51.634;5.562;2023-03-23T11:32:46;9.23;;;2.13;;
59512;SDS011;45330;51.634;5.562;2023-03-23T11:35:25;11.25;;;2.33;;
59512;SDS011;45330;51.634;5.562;2023-03-23T11:37:54;10.53;;;2.73;;
59512;SDS011;45330;51.634;5.562;2023-03-23T11:40:26;13.93;;;2.38;;
59512;SDS011;45330;51.634;5.562;2023-03-23T11:48:18;9.38;;;2.17;;
59512;SDS011;45330;51.634;5.562;2023-03-23T11:58:53;9.40;;;2.13;;
59512;SDS011;45330;51.634;5.562;2023-03-23T12:04:00;10.20;;;2.22;;
59512;SDS011;45330;51.634;5.562;2023-03-23T12:06:46;4.30;;;1.77;;
59512;SDS011;45330;51.634;5.562;2023-03-23T12:15:00;7.43;;;1.88;;
59512;SDS011;45330;51.634;5.562;2023-03-23T12:38:03;8.52;;;2.10;;
59512;SDS011;45330;51.634;5.562;2023-03-23T12:43:13;9.00;;;2.47;;
59512;SDS011;45330;51.634;5.562;2023-03-23T12:48:24;11.90;;;2.65;;
59512;SDS011;45330;51.634;5.562;2023-03-23T12:53:23;12.43;;;2.50;;
59512;SDS011;45330;51.634;5.562;2023-03-23T12:56:17;15.18;;;2.53;;
59512;SDS011;45330;51.634;5.562;2023-03-23T12:58:50;11.80;;;2.40;;
59512;SDS011;45330;51.634;5.562;2023-03-23T13:01:28;10.95;;;2.50;;
59512;SDS011;45330;51.634;5.562;2023-03-23T13:06:45;10.40;;;2.35;;
59512;SDS011;45330;51.634;5.562;2023-03-23T13:09:17;13.48;;;2.45;;
59512;SDS011;45330;51.634;5.562;2023-03-23T13:11:44;11.75;;;2.67;;
59512;SDS011;45330;51.634;5.562;2023-03-23T13:14:18;12.73;;;2.63;;
59512;SDS011;45330;51.634;5.562;2023-03-23T13:16:52;11.15;;;2.35;;
59512;SDS011;45330;51.634;5.562;2023-03-23T13:19:51;10.15;;;2.60;;
59512;SDS011;45330;51.634;5.562;2023-03-23T13:22:25;13.02;;;2.50;;
59512;SDS011;45330;51.634;5.562;2023-03-23T13:24:58;11.77;;;2.90;;
59512;SDS011;45330;51.634;5.562;2023-03-23T13:27:28;12.93;;;2.65;;
59512;SDS011;45330;51.634;5.562;2023-03-23T13:29:57;7.47;;;2.20;;
59512;SDS011;45330;51.634;5.562;2023-03-23T13:32:29;15.23;;;2.90;;
59512;SDS011;45330;51.634;5.562;2023-03-23T13:35:03;11.70;;;2.63;;
59512;SDS011;45330;51.634;5.562;2023-03-23T13:37:40;10.45;;;2.58;;
59512;SDS011;45330;51.634;5.562;2023-03-23T13:42:36;11.13;;;2.60;;
59512;SDS011;45330;51.634;5.562;2023-03-23T13:47:46;13.88;;;3.08;;
59512;SDS011;45330;51.634;5.562;2023-03-23T13:50:43;12.48;;;2.90;;
59512;SDS011;45330;51.634;5.562;2023-03-23T13:53:15;12.93;;;2.95;;
59512;SDS011;45330;51.634;5.562;2023-03-23T13:58:46;10.90;;;2.17;;
59512;SDS011;45330;51.634;5.562;2023-03-23T14:01:30;12.13;;;2.97;;
59512;SDS011;45330;51.634;5.562;2023-03-23T14:03:59;9.07;;;2.38;;
59512;SDS011;45330;51.634;5.562;2023-03-23T14:06:26;9.35;;;2.40;;
59512;SDS011;45330;51.634;5.562;2023-03-23T14:09:04;12.38;;;2.67;;
59512;SDS011;45330;51.634;5.562;2023-03-23T14:11:31;13.90;;;3.10;;
59512;SDS011;45330;51.634;5.562;2023-03-23T14:19:13;13.73;;;2.90;;
59512;SDS011;45330;51.634;5.562;2023-03-23T14:24:20;10.20;;;2.28;;
59512;SDS011;45330;51.634;5.562;2023-03-23T14:26:48;11.27;;;2.80;;
59512;SDS011;45330;51.634;5.562;2023-03-23T14:29:17;11.52;;;2.70;;
59512;SDS011;45330;51.634;5.562;2023-03-23T14:31:43;11.75;;;2.47;;
59512;SDS011;45330;51.634;5.562;2023-03-23T14:34:14;5.18;;;1.90;;
59512;SDS011;45330;51.634;5.562;2023-03-23T14:36:44;8.52;;;2.28;;
59512;SDS011;45330;51.634;5.562;2023-03-23T14:39:19;8.38;;;2.33;;
59512;SDS011;45330;51.634;5.562;2023-03-23T14:41:54;10.98;;;2.80;;
59512;SDS011;45330;51.634;5.562;2023-03-23T14:44:28;11.77;;;2.63;;
59512;SDS011;45330;51.634;5.562;2023-03-23T14:46:55;11.60;;;2.90;;
59512;SDS011;45330;51.634;5.562;2023-03-23T14:49:30;10.90;;;3.10;;
59512;SDS011;45330;51.634;5.562;2023-03-23T14:52:03;12.73;;;2.70;;
59512;SDS011;45330;51.634;5.562;2023-03-23T14:54:34;12.75;;;2.88;;
59512;SDS011;45330;51.634;5.562;2023-03-23T14:57:02;12.43;;;3.13;;
59512;SDS011;45330;51.634;5.562;2023-03-23T14:59:35;11.88;;;2.70;;
59512;SDS011;45330;51.634;5.562;2023-03-23T15:02:01;13.93;;;3.30;;
59512;SDS011;45330;51.634;5.562;2023-03-23T15:04:26;8.75;;;2.28;;
59512;SDS011;45330;51.634;5.562;2023-03-23T15:06:54;8.52;;;2.33;;
59512;SDS011;45330;51.634;5.562;2023-03-23T15:09:23;12.10;;;2.80;;
59512;SDS011;45330;51.634;5.562;2023-03-23T15:12:00;13.77;;;2.80;;
59512;SDS011;45330;51.634;5.562;2023-03-23T15:14:32;12.82;;;2.97;;
59512;SDS011;45330;51.634;5.562;2023-03-23T15:17:09;14.32;;;2.90;;
59512;SDS011;45330;51.634;5.562;2023-03-23T15:19:43;12.48;;;2.97;;
59512;SDS011;45330;51.634;5.562;2023-03-23T15:22:25;10.20;;;2.78;;
59512;SDS011;45330;51.634;5.562;2023-03-23T15:27:57;8.43;;;2.30;;
59512;SDS011;45330;51.634;5.562;2023-03-23T15:33:08;11.20;;;2.57;;
59512;SDS011;45330;51.634;5.562;2023-03-23T15:35:39;9.85;;;2.63;;
59512;SDS011;45330;51.634;5.562;2023-03-23T15:40:51;11.63;;;2.50;;
59512;SDS011;45330;51.634;5.562;2023-03-23T15:43:20;7.43;;;2.42;;
59512;SDS011;45330;51.634;5.562;2023-03-23T15:48:25;10.77;;;2.55;;
59512;SDS011;45330;51.634;5.562;2023-03-23T15:50:51;14.63;;;3.10;;
59512;SDS011;45330;51.634;5.562;2023-03-23T15:55:53;12.00;;;3.00;;
59512;SDS011;45330;51.634;5.562;2023-03-23T15:58:19;13.35;;;2.58;;
59512;SDS011;45330;51.634;5.562;2023-03-23T16:00:45;11.35;;;2.70;;
59512;SDS011;45330;51.634;5.562;2023-03-23T16:03:13;7.60;;;2.58;;
59512;SDS011;45330;51.634;5.562;2023-03-23T16:05:43;8.82;;;2.63;;
59512;SDS011;45330;51.634;5.562;2023-03-23T16:08:12;12.93;;;2.92;;
59512;SDS011;45330;51.634;5.562;2023-03-23T16:10:38;14.13;;;3.03;;
59512;SDS011;45330;51.634;5.562;2023-03-23T16:13:04;11.48;;;2.67;;
59512;SDS011;45330;51.634;5.562;2023-03-23T16:15:30;9.27;;;2.97;;
59512;SDS011;45330;51.634;5.562;2023-03-23T16:17:55;14.48;;;3.20;;
59512;SDS011;45330;51.634;5.562;2023-03-23T16:20:21;13.57;;;2.88;;
59512;SDS011;45330;51.634;5.562;2023-03-23T16:22:48;12.77;;;2.95;;
59512;SDS011;45330;51.634;5.562;2023-03-23T16:25:14;12.20;;;2.90;;
59512;SDS011;45330;51.634;5.562;2023-03-23T16:27:41;14.20;;;3.00;;
59512;SDS011;45330;51.634;5.562;2023-03-23T16:30:17;11.07;;;2.60;;
59512;SDS011;45330;51.634;5.562;2023-03-23T16:32:47;11.20;;;2.67;;
59512;SDS011;45330;51.634;5.562;2023-03-23T16:35:13;12.63;;;2.72;;
59512;SDS011;45330;51.634;5.562;2023-03-23T16:37:43;10.43;;;2.75;;
59512;SDS011;45330;51.634;5.562;2023-03-23T16:40:16;11.00;;;2.40;;
59512;SDS011;45330;51.634;5.562;2023-03-23T16:42:43;12.38;;;2.70;;
59512;SDS011;45330;51.634;5.562;2023-03-23T16:45:08;13.05;;;2.92;;
59512;SDS011;45330;51.634;5.562;2023-03-23T16:47:34;13.10;;;3.00;;
59512;SDS011;45330;51.634;5.562;2023-03-23T16:50:00;12.70;;;2.47;;
59512;SDS011;45330;51.634;5.562;2023-03-23T16:52:26;13.88;;;2.65;;
59512;SDS011;45330;51.634;5.562;2023-03-23T16:54:51;11.95;;;2.88;;
59512;SDS011;45330;51.634;5.562;2023-03-23T16:57:17;10.70;;;2.55;;
59512;SDS011;45330;51.634;5.562;2023-03-23T16:59:42;11.20;;;2.60;;